Time;durP1;ratioP1;P1;durP2;ratioP2;P2;SDS_P1;SDS_P2;PMS_P1;PMS_P2;Temp;Humidity;BMP_temperature;BMP_pressure;BME280_temperature;BME280_humidity;BME280_pressure;Samples;Min_cycle;Max_cycle;Signal;HPM_P1;HPM_P2
2022/05/14 00:00:36;;;;;;;11.60;3.60;;;13.40;99.90;;;;;;4986817;28;20606;-54
2022/05/14 00:03:02;;;;;;;11.20;3.80;;;13.40;99.90;;;;;;4986898;28;20914;-51
2022/05/14 00:05:27;;;;;;;9.93;3.90;;;13.40;99.90;;;;;;5006706;28;20883;-51
2022/05/14 00:07:53;;;;;;;14.35;3.97;;;13.50;99.90;;;;;;4990639;28;20486;-51
2022/05/14 00:10:26;;;;;;;10.45;3.28;;;13.50;99.90;;;;;;5009746;28;20440;-55
2022/05/14 00:13:04;;;;;;;10.90;3.85;;;13.40;99.90;;;;;;4992457;28;20792;-49
2022/05/14 00:15:41;;;;;;;9.02;3.95;;;13.50;99.90;;;;;;5011699;28;20809;-53
2022/05/14 00:18:09;;;;;;;11.97;4.20;;;13.40;99.90;;;;;;4995991;28;20458;-51
2022/05/14 00:20:36;;;;;;;11.45;3.70;;;13.40;99.90;;;;;;4995174;28;20471;-53
2022/05/14 00:23:05;;;;;;;9.48;4.10;;;13.40;99.90;;;;;;4994421;28;20491;-52
2022/05/14 00:25:32;;;;;;;11.35;4.28;;;13.40;99.90;;;;;;4994198;28;20459;-53
2022/05/14 00:27:57;;;;;;;9.82;3.83;;;13.30;99.90;;;;;;4993784;28;20685;-53
2022/05/14 00:30:26;;;;;;;8.97;3.70;;;13.30;99.90;;;;;;4993093;28;20816;-53
2022/05/14 00:33:16;;;;;;;11.77;3.85;;;13.40;99.90;;;;;;5010832;28;20384;-54
2022/05/14 00:39:04;;;;;;;11.30;4.03;;;13.40;99.90;;;;;;5007948;28;20388;-53
2022/05/14 00:41:30;;;;;;;11.02;4.03;;;13.40;99.90;;;;;;4994088;28;20700;-55
2022/05/14 00:43:58;;;;;;;8.27;3.67;;;13.40;99.90;;;;;;4994581;28;20688;-54
2022/05/14 00:46:35;;;;;;;11.27;3.97;;;13.40;99.90;;;;;;5012850;28;20784;-50
2022/05/14 00:49:14;;;;;;;10.55;3.90;;;13.40;99.90;;;;;;4996417;28;20393;-50
2022/05/14 00:51:41;;;;;;;10.27;4.25;;;13.30;99.90;;;;;;5017173;28;20404;-53
2022/05/14 00:54:11;;;;;;;11.63;4.25;;;13.30;99.90;;;;;;4998802;28;20559;-49
2022/05/14 00:56:48;;;;;;;13.50;4.45;;;13.20;99.90;;;;;;4990359;28;20422;-54
2022/05/14 00:59:37;;;;;;;7.75;3.90;;;13.30;99.90;;;;;;4992374;28;20441;-51
2022/05/14 01:02:06;;;;;;;11.98;4.00;;;13.30;99.90;;;;;;4993053;28;20795;-56
2022/05/14 01:04:32;;;;;;;11.23;4.50;;;13.20;99.90;;;;;;4992060;28;20406;-53
2022/05/14 01:07:08;;;;;;;13.47;4.80;;;13.20;99.90;;;;;;4994345;28;20722;-50
2022/05/14 01:09:39;;;;;;;9.35;4.03;;;13.10;99.90;;;;;;4994132;28;20430;-53
2022/05/14 01:12:07;;;;;;;11.13;4.47;;;13.10;99.90;;;;;;4993341;28;20382;-49
2022/05/14 01:14:33;;;;;;;9.55;3.95;;;13.20;99.90;;;;;;4993081;28;20493;-53
2022/05/14 01:16:58;;;;;;;11.20;4.80;;;13.20;99.90;;;;;;4994670;28;20419;-56
2022/05/14 01:19:24;;;;;;;9.27;4.10;;;13.10;99.90;;;;;;4994395;28;20434;-55
2022/05/14 01:22:01;;;;;;;9.88;4.10;;;13.10;99.90;;;;;;4994196;28;20791;-50
2022/05/14 01:27:26;;;;;;;14.97;4.90;;;13.10;99.90;;;;;;4989761;28;20383;-49
2022/05/14 01:29:52;;;;;;;11.13;4.53;;;13.00;99.90;;;;;;4988819;28;20383;-54
2022/05/14 01:32:18;;;;;;;14.03;5.03;;;13.00;99.90;;;;;;4991195;28;20468;-51
2022/05/14 01:34:44;;;;;;;10.47;4.20;;;13.00;99.90;;;;;;4991610;28;20537;-50
2022/05/14 01:37:10;;;;;;;13.45;4.75;;;13.00;99.90;;;;;;4990767;28;20397;-51
2022/05/14 01:39:37;;;;;;;10.32;4.22;;;13.00;99.90;;;;;;4990337;28;20645;-55
2022/05/14 01:42:04;;;;;;;9.50;4.23;;;13.00;99.90;;;;;;4992371;28;20399;-53
2022/05/14 01:44:30;;;;;;;10.32;3.97;;;12.90;99.90;;;;;;4992614;28;20457;-51
2022/05/14 01:46:56;;;;;;;11.77;4.70;;;12.90;99.90;;;;;;4991915;28;20391;-52
2022/05/14 01:49:21;;;;;;;12.13;4.45;;;12.90;99.90;;;;;;4991814;28;20405;-54
2022/05/14 01:51:47;;;;;;;13.23;4.97;;;12.90;99.90;;;;;;4991322;28;20671;-52
2022/05/14 01:54:13;;;;;;;9.68;4.53;;;12.90;99.90;;;;;;4990795;28;20395;-51
2022/05/14 01:56:39;;;;;;;11.10;4.40;;;12.90;99.90;;;;;;4991530;28;20434;-54
2022/05/14 01:59:04;;;;;;;12.27;4.47;;;12.90;99.90;;;;;;4992061;28;20395;-54
2022/05/14 02:01:36;;;;;;;11.23;4.63;;;13.00;99.90;;;;;;4992471;28;20490;-53
2022/05/14 02:04:08;;;;;;;9.40;4.55;;;13.00;99.90;;;;;;4994345;28;20836;-55
2022/05/14 02:06:34;;;;;;;9.90;4.25;;;12.90;99.90;;;;;;4992465;28;20461;-54
2022/05/14 02:09:00;;;;;;;10.85;4.55;;;12.90;99.90;;;;;;4994507;28;20387;-54
2022/05/14 02:11:27;;;;;;;10.60;4.60;;;12.90;99.90;;;;;;4994500;28;20398;-52
2022/05/14 02:13:53;;;;;;;12.10;4.70;;;12.80;99.90;;;;;;4993184;28;20402;-56
2022/05/14 02:16:19;;;;;;;11.80;4.28;;;12.90;99.90;;;;;;4992010;28;20414;-53
2022/05/14 02:18:45;;;;;;;12.70;4.90;;;12.80;99.90;;;;;;4990741;28;20394;-50
2022/05/14 02:21:12;;;;;;;10.85;4.53;;;12.80;99.90;;;;;;4990763;28;20456;-51
2022/05/14 02:23:38;;;;;;;11.68;4.28;;;12.80;99.90;;;;;;4988931;28;20489;-55
2022/05/14 02:26:05;;;;;;;10.25;4.72;;;12.80;99.90;;;;;;4989546;28;20821;-52
2022/05/14 02:28:30;;;;;;;13.18;4.68;;;12.80;99.90;;;;;;4989519;28;20730;-53
2022/05/14 02:30:56;;;;;;;9.60;4.57;;;12.90;99.90;;;;;;4990802;28;20827;-52
2022/05/14 02:33:21;;;;;;;12.07;4.60;;;12.90;99.90;;;;;;4992632;28;20402;-55
2022/05/14 02:35:47;;;;;;;9.10;4.53;;;12.90;99.90;;;;;;4994280;28;20691;-52
2022/05/14 02:38:15;;;;;;;11.43;4.53;;;12.80;99.90;;;;;;4992030;28;20425;-51
2022/05/14 02:40:42;;;;;;;11.30;4.28;;;12.80;99.90;;;;;;4991351;28;20433;-50
2022/05/14 02:43:07;;;;;;;11.75;4.95;;;12.80;99.90;;;;;;4991193;28;20413;-51
2022/05/14 02:45:33;;;;;;;13.13;4.43;;;12.80;99.90;;;;;;4993093;28;20399;-52
2022/05/14 02:47:58;;;;;;;11.00;4.50;;;12.80;99.90;;;;;;4992723;28;20525;-53
2022/05/14 02:50:24;;;;;;;14.73;4.77;;;12.90;99.90;;;;;;4992135;28;20456;-52
2022/05/14 02:52:51;;;;;;;14.27;5.30;;;12.80;99.90;;;;;;4993530;28;20398;-52
2022/05/14 02:55:17;;;;;;;8.52;4.68;;;12.80;99.90;;;;;;4999726;28;20420;-49
2022/05/14 02:57:42;;;;;;;10.88;4.20;;;12.80;99.90;;;;;;4994932;28;20388;-51
2022/05/14 03:00:11;;;;;;;12.13;4.67;;;12.80;99.90;;;;;;4996107;28;20428;-50
2022/05/14 03:02:37;;;;;;;12.55;5.05;;;12.80;99.90;;;;;;4995523;28;20381;-54
2022/05/14 03:05:05;;;;;;;9.05;4.80;;;12.70;99.90;;;;;;4996146;28;20499;-51
2022/05/14 03:07:30;;;;;;;14.65;4.85;;;12.70;99.90;;;;;;5010496;28;20813;-49
2022/05/14 03:09:56;;;;;;;15.87;5.10;;;12.70;99.90;;;;;;4992868;28;20389;-52
2022/05/14 03:12:22;;;;;;;11.03;4.80;;;12.70;99.90;;;;;;4992195;28;20461;-53
2022/05/14 03:14:51;;;;;;;10.20;4.22;;;12.60;99.90;;;;;;4993169;28;20399;-50
2022/05/14 03:17:17;;;;;;;12.50;5.40;;;12.60;99.90;;;;;;4994651;28;20381;-54
2022/05/14 03:19:43;;;;;;;12.77;5.32;;;12.60;99.90;;;;;;4995478;28;20685;-55
2022/05/14 03:22:09;;;;;;;11.13;5.17;;;12.60;99.90;;;;;;4994912;28;20405;-54
2022/05/14 03:24:38;;;;;;;12.65;5.18;;;12.60;99.90;;;;;;4994925;28;20796;-53
2022/05/14 03:27:05;;;;;;;12.30;4.93;;;12.60;99.90;;;;;;4993458;28;20388;-56
2022/05/14 03:29:31;;;;;;;15.07;5.70;;;12.60;99.90;;;;;;4993476;28;20391;-55
2022/05/14 03:31:57;;;;;;;14.57;5.35;;;12.60;99.90;;;;;;4994078;28;20612;-54
2022/05/14 03:34:23;;;;;;;13.68;4.95;;;12.60;99.90;;;;;;5011249;28;20844;-50
2022/05/14 03:36:49;;;;;;;13.68;5.07;;;12.50;99.90;;;;;;4994472;28;20689;-56
2022/05/14 03:39:16;;;;;;;14.75;5.00;;;12.50;99.90;;;;;;4994473;28;20396;-55
2022/05/14 03:41:42;;;;;;;11.03;4.50;;;12.50;99.90;;;;;;5011952;28;20392;-53
2022/05/14 03:44:07;;;;;;;12.07;4.73;;;12.50;99.90;;;;;;4996025;28;20388;-51
2022/05/14 03:46:34;;;;;;;11.33;5.17;;;12.50;99.90;;;;;;4996593;28;20670;-50
2022/05/14 03:52:21;;;;;;;10.77;4.93;;;12.40;99.90;;;;;;5013262;28;20367;-52
2022/05/14 03:54:47;;;;;;;12.20;5.23;;;12.40;99.90;;;;;;4995354;28;20385;-51
2022/05/14 03:57:13;;;;;;;10.10;4.82;;;12.40;99.90;;;;;;5010745;28;20804;-55
2022/05/14 03:59:39;;;;;;;12.30;4.78;;;12.50;99.90;;;;;;5011600;28;20385;-53
2022/05/14 04:02:06;;;;;;;14.90;5.03;;;12.50;99.90;;;;;;4993444;28;20495;-56
2022/05/14 04:04:32;;;;;;;14.25;4.85;;;12.50;99.90;;;;;;5012923;28;20404;-54
2022/05/14 04:06:58;;;;;;;13.00;5.17;;;12.50;99.90;;;;;;4995911;28;20705;-53
2022/05/14 04:09:24;;;;;;;13.55;5.70;;;12.50;99.90;;;;;;4992553;28;20765;-54
2022/05/14 04:11:51;;;;;;;10.77;5.20;;;12.50;99.90;;;;;;4989953;28;20407;-56
2022/05/14 04:14:17;;;;;;;15.27;5.37;;;12.50;99.90;;;;;;4991131;28;20591;-53
2022/05/14 04:16:43;;;;;;;14.27;5.37;;;12.50;99.90;;;;;;4995139;28;20427;-54
2022/05/14 04:19:08;;;;;;;13.07;5.20;;;12.50;99.90;;;;;;5013334;28;20400;-55
2022/05/14 04:21:34;;;;;;;12.53;5.57;;;12.50;99.90;;;;;;4996573;28;20796;-56
2022/05/14 04:24:00;;;;;;;13.43;5.43;;;12.50;99.90;;;;;;4997018;28;20447;-54
2022/05/14 04:26:26;;;;;;;12.77;5.22;;;12.40;99.90;;;;;;4997736;28;20399;-52
2022/05/14 04:28:52;;;;;;;16.00;5.60;;;12.50;99.90;;;;;;4998910;28;20392;-53
2022/05/14 04:31:21;;;;;;;11.65;4.90;;;12.40;99.90;;;;;;4996863;28;20405;-51
2022/05/14 04:33:47;;;;;;;12.30;4.72;;;12.40;99.90;;;;;;4996279;28;20412;-54
2022/05/14 04:36:12;;;;;;;9.20;4.80;;;12.40;99.90;;;;;;4996906;28;20415;-55
2022/05/14 04:38:38;;;;;;;11.07;4.50;;;12.40;99.90;;;;;;4997531;28;20431;-50
2022/05/14 04:41:03;;;;;;;13.33;5.23;;;12.50;99.90;;;;;;5015334;28;20385;-52
2022/05/14 04:43:29;;;;;;;13.15;5.60;;;12.40;99.90;;;;;;4998454;28;20424;-51
2022/05/14 04:45:54;;;;;;;15.53;5.60;;;12.50;99.90;;;;;;4998550;28;20385;-52
2022/05/14 04:48:20;;;;;;;12.80;5.13;;;12.50;99.90;;;;;;4996641;28;20405;-50
2022/05/14 04:50:46;;;;;;;11.52;4.95;;;12.50;99.90;;;;;;4997534;28;20385;-53
2022/05/14 04:53:12;;;;;;;12.70;5.22;;;12.50;99.90;;;;;;4998668;28;20420;-54
2022/05/14 04:55:38;;;;;;;11.37;5.27;;;12.50;99.90;;;;;;4994475;28;20436;-53
2022/05/14 04:58:07;;;;;;;16.70;5.75;;;12.60;99.90;;;;;;4993944;28;20402;-53
2022/05/14 05:00:32;;;;;;;13.40;4.95;;;12.60;99.90;;;;;;4993580;28;20750;-54
2022/05/14 05:05:42;;;;;;;14.65;6.10;;;12.60;99.90;;;;;;4991773;28;20821;-53
2022/05/14 05:08:09;;;;;;;14.88;5.53;;;12.60;99.90;;;;;;4990400;28;20612;-51
2022/05/14 05:10:35;;;;;;;15.63;5.80;;;12.60;99.90;;;;;;4990413;28;20806;-52
2022/05/14 05:13:00;;;;;;;15.47;5.83;;;12.60;99.90;;;;;;4989396;28;20394;-53
2022/05/14 05:15:26;;;;;;;17.23;5.53;;;12.60;99.90;;;;;;4989594;28;20466;-50
2022/05/14 05:17:51;;;;;;;18.48;5.82;;;12.60;99.90;;;;;;4988290;28;20394;-52
2022/05/14 05:20:17;;;;;;;16.13;6.00;;;12.60;99.90;;;;;;4988312;28;20430;-51
2022/05/14 05:22:43;;;;;;;16.17;6.00;;;12.60;99.90;;;;;;4988002;28;20423;-50
2022/05/14 05:25:10;;;;;;;17.02;5.82;;;12.60;99.90;;;;;;4987871;28;20390;-54
2022/05/14 05:27:35;;;;;;;19.10;6.60;;;12.60;99.90;;;;;;4989316;28;20486;-51
2022/05/14 05:30:05;;;;;;;19.48;6.40;;;12.60;99.90;;;;;;4991461;28;20501;-50
2022/05/14 05:32:31;;;;;;;14.93;5.93;;;12.60;99.90;;;;;;4991457;28;20394;-53
2022/05/14 05:34:56;;;;;;;10.50;5.07;;;12.70;99.90;;;;;;4992106;28;20409;-56
2022/05/14 05:37:22;;;;;;;17.00;6.20;;;12.80;99.90;;;;;;4993017;28;20671;-53
2022/05/14 05:39:47;;;;;;;18.23;6.17;;;12.70;99.90;;;;;;4991985;28;20405;-53
2022/05/14 05:42:13;;;;;;;19.53;6.57;;;12.70;99.90;;;;;;4992866;28;20704;-53
2022/05/14 05:44:38;;;;;;;16.02;6.25;;;12.70;99.90;;;;;;4992850;28;20394;-54
2022/05/14 05:47:08;;;;;;;16.70;5.70;;;12.80;99.90;;;;;;4993811;28;20441;-50
2022/05/14 05:49:37;;;;;;;18.77;6.47;;;12.80;99.90;;;;;;4994332;28;20615;-53
2022/05/14 05:52:03;;;;;;;19.00;6.10;;;12.80;99.90;;;;;;4991085;28;20518;-52
2022/05/14 05:57:13;;;;;;;13.75;5.50;;;12.80;99.90;;;;;;4989100;28;20398;-55
2022/05/14 05:59:38;;;;;;;17.43;5.90;;;12.90;99.90;;;;;;4989531;28;20391;-52
2022/05/14 06:02:04;;;;;;;17.93;5.83;;;12.90;99.90;;;;;;4988860;28;20398;-50
2022/05/14 06:04:29;;;;;;;13.52;5.35;;;12.90;99.90;;;;;;4988418;28;20415;-51
2022/05/14 06:06:55;;;;;;;18.20;6.27;;;12.90;99.90;;;;;;4989616;28;20398;-50
2022/05/14 06:09:24;;;;;;;19.37;6.50;;;12.90;99.90;;;;;;4991342;28;20806;-53
2022/05/14 06:11:50;;;;;;;20.02;6.13;;;13.00;99.90;;;;;;4990195;28;20573;-55
2022/05/14 06:14:16;;;;;;;18.55;6.57;;;13.10;99.90;;;;;;4989221;28;20417;-51
2022/05/14 06:16:42;;;;;;;14.57;5.53;;;13.10;99.90;;;;;;4988395;28;20446;-53
2022/05/14 06:19:08;;;;;;;21.63;6.57;;;13.10;99.90;;;;;;4987417;28;20433;-56
2022/05/14 06:21:36;;;;;;;16.50;6.50;;;13.20;99.90;;;;;;4987936;28;20506;-56
2022/05/14 06:24:02;;;;;;;19.45;6.18;;;13.20;99.90;;;;;;4987787;28;20405;-53
2022/05/14 06:26:27;;;;;;;17.83;5.70;;;13.20;99.90;;;;;;4986567;28;20411;-53
2022/05/14 06:28:53;;;;;;;22.30;6.70;;;13.20;99.90;;;;;;4987491;28;20543;-58
2022/05/14 06:31:18;;;;;;;18.52;5.88;;;13.20;99.90;;;;;;4988517;28;20394;-53
2022/05/14 06:33:45;;;;;;;21.30;6.50;;;13.30;99.90;;;;;;4988688;28;20477;-50
2022/05/14 06:36:11;;;;;;;18.27;6.33;;;13.30;99.90;;;;;;4990016;28;20653;-53
2022/05/14 06:38:37;;;;;;;23.02;6.82;;;13.40;99.90;;;;;;4988963;28;20557;-52
2022/05/14 06:41:08;;;;;;;19.50;6.95;;;13.50;99.90;;;;;;4987617;28;20399;-53
2022/05/14 06:43:34;;;;;;;19.75;6.78;;;13.50;99.90;;;;;;4989362;28;20759;-52
2022/05/14 06:45:59;;;;;;;26.30;6.97;;;13.40;99.90;;;;;;4989905;28;20386;-51
2022/05/14 06:48:25;;;;;;;19.50;6.75;;;13.40;99.90;;;;;;4987358;28;20717;-53
2022/05/14 06:50:51;;;;;;;20.50;6.78;;;13.40;99.90;;;;;;4985144;28;20396;-54
2022/05/14 06:53:19;;;;;;;19.80;6.65;;;13.50;99.90;;;;;;4986688;28;20406;-51
2022/05/14 06:55:47;;;;;;;19.27;6.87;;;13.50;99.90;;;;;;4996000;28;20597;-54
2022/05/14 06:58:16;;;;;;;23.07;6.57;;;13.60;99.90;;;;;;4989862;28;20389;-52
2022/05/14 07:00:42;;;;;;;22.65;6.90;;;13.70;99.90;;;;;;4991268;28;20481;-54
2022/05/14 07:08:38;;;;;;;20.80;6.40;;;13.90;99.90;;;;;;5006235;28;20396;-53
2022/05/14 07:11:04;;;;;;;24.65;7.00;;;13.90;99.90;;;;;;4989768;28;20583;-54
2022/05/14 07:13:30;;;;;;;17.55;6.32;;;13.90;99.90;;;;;;4990016;28;20397;-53
2022/05/14 07:15:55;;;;;;;15.47;5.80;;;13.90;99.90;;;;;;5006480;28;20618;-53
2022/05/14 07:18:21;;;;;;;21.47;6.53;;;14.00;99.90;;;;;;4988780;28;20408;-51
2022/05/14 07:20:47;;;;;;;21.75;6.30;;;14.00;99.90;;;;;;4986173;28;20393;-52
2022/05/14 07:23:13;;;;;;;21.38;6.28;;;14.10;99.90;;;;;;5005759;28;20385;-53
2022/05/14 07:25:38;;;;;;;18.70;5.97;;;14.10;99.90;;;;;;4988222;28;20389;-54
2022/05/14 07:28:04;;;;;;;23.95;7.22;;;14.20;99.90;;;;;;4987538;28;20474;-53
2022/05/14 07:30:30;;;;;;;21.25;6.03;;;14.20;99.90;;;;;;4987376;28;20432;-53
2022/05/14 07:32:55;;;;;;;20.10;5.73;;;14.20;99.90;;;;;;4985963;28;20389;-51
2022/05/14 07:35:21;;;;;;;18.25;5.80;;;14.30;99.90;;;;;;4988302;28;20411;-53
2022/05/14 07:37:51;;;;;;;16.03;5.33;;;14.30;99.90;;;;;;4988321;28;20820;-55
2022/05/14 07:40:22;;;;;;;16.10;5.70;;;14.30;99.90;;;;;;4987715;28;20396;-51
2022/05/14 07:42:53;;;;;;;18.88;6.20;;;14.50;99.90;;;;;;4987303;28;20846;-54
2022/05/14 07:45:27;;;;;;;22.70;5.80;;;14.50;99.90;;;;;;4985534;28;20389;-56
2022/05/14 07:47:54;;;;;;;17.45;5.72;;;14.50;99.90;;;;;;4986294;28;20805;-55
2022/05/14 07:50:20;;;;;;;15.50;5.15;;;14.50;99.90;;;;;;4989733;28;20488;-54
2022/05/14 07:52:51;;;;;;;15.33;5.27;;;14.60;99.90;;;;;;5031727;28;21050;-56
2022/05/14 07:55:18;;;;;;;19.15;5.88;;;14.60;99.90;;;;;;5014356;28;20436;-54
2022/05/14 07:57:43;;;;;;;17.30;5.95;;;14.70;99.90;;;;;;5013195;28;20400;-54
2022/05/14 08:00:19;;;;;;;16.35;5.50;;;14.70;99.90;;;;;;5014230;28;20487;-53
2022/05/14 08:02:45;;;;;;;12.88;5.35;;;14.80;99.90;;;;;;5013928;28;20408;-55
2022/05/14 08:05:12;;;;;;;20.08;5.90;;;14.90;99.90;;;;;;5015378;28;20455;-55
2022/05/14 08:07:38;;;;;;;22.15;6.35;;;14.80;99.90;;;;;;5014966;28;20824;-54
2022/05/14 08:10:08;;;;;;;19.27;5.60;;;14.90;99.90;;;;;;5012111;28;20415;-51
2022/05/14 08:12:38;;;;;;;17.20;5.93;;;14.90;99.90;;;;;;5012502;28;20400;-50
2022/05/14 08:15:04;;;;;;;17.77;5.85;;;15.00;99.90;;;;;;5012839;28;20396;-54
2022/05/14 08:17:30;;;;;;;20.10;6.07;;;15.10;99.90;;;;;;5013969;28;20714;-53
2022/05/14 08:19:56;;;;;;;16.03;5.77;;;15.00;99.90;;;;;;5014995;28;20900;-56
2022/05/14 08:25:07;;;;;;;16.83;5.53;;;14.90;99.90;;;;;;5014523;28;20854;-53
2022/05/14 08:27:44;;;;;;;14.07;5.20;;;15.00;99.90;;;;;;5013064;28;20401;-51
2022/05/14 08:30:12;;;;;;;15.23;4.95;;;15.00;99.90;;;;;;5013183;28;20384;-49
2022/05/14 08:32:38;;;;;;;16.38;5.55;;;15.10;99.90;;;;;;5012739;28;20385;-51
2022/05/14 08:35:04;;;;;;;15.80;5.05;;;15.20;99.90;;;;;;5011404;28;20677;-54
2022/05/14 08:37:30;;;;;;;15.65;5.13;;;15.20;99.90;;;;;;5011757;28;20389;-53
2022/05/14 08:39:55;;;;;;;14.90;4.40;;;15.20;99.90;;;;;;5013627;28;20467;-54
2022/05/14 08:42:21;;;;;;;12.53;4.20;;;15.20;99.90;;;;;;5012095;28;20401;-53
2022/05/14 08:44:47;;;;;;;13.57;4.68;;;15.20;99.90;;;;;;5012049;28;20384;-52
2022/05/14 08:47:28;;;;;;;12.57;4.22;;;15.20;99.90;;;;;;5008628;28;20464;-53
2022/05/14 08:49:55;;;;;;;14.95;4.72;;;15.30;99.90;;;;;;5008693;28;20498;-54
2022/05/14 08:52:24;;;;;;;15.35;4.53;;;15.40;99.90;;;;;;5009424;28;20394;-51
2022/05/14 08:54:57;;;;;;;17.37;4.60;;;15.40;99.90;;;;;;5011377;28;20394;-53
2022/05/14 08:57:36;;;;;;;14.45;4.22;;;15.40;99.90;;;;;;5010681;28;21073;-52
2022/05/14 09:00:05;;;;;;;12.95;4.15;;;15.40;99.90;;;;;;4994186;28;20385;-49
2022/05/14 09:02:53;;;;;;;13.80;4.20;;;15.50;99.90;;;;;;5010045;28;20560;-53
2022/05/14 09:05:30;;;;;;;16.35;5.00;;;15.60;99.90;;;;;;5012916;28;20395;-53
2022/05/14 09:07:57;;;;;;;12.68;4.25;;;15.70;99.90;;;;;;5010092;28;20385;-56
2022/05/14 09:10:30;;;;;;;13.40;4.30;;;15.70;99.90;;;;;;5011294;28;20503;-52
2022/05/14 09:13:10;;;;;;;15.00;4.00;;;15.70;99.90;;;;;;5009637;28;20460;-53
2022/05/14 09:15:44;;;;;;;11.20;3.35;;;15.70;99.90;;;;;;5031867;28;20390;-55
2022/05/14 09:18:18;;;;;;;13.07;4.25;;;15.80;99.90;;;;;;5032566;28;20415;-53
2022/05/14 09:20:54;;;;;;;11.27;3.88;;;15.80;99.90;;;;;;4998655;28;20395;-56
2022/05/14 09:23:39;;;;;;;15.33;3.77;;;15.80;99.90;;;;;;5015468;28;20425;-55
2022/05/14 09:26:23;;;;;;;9.90;3.30;;;15.90;99.90;;;;;;5016297;28;20432;-52
2022/05/14 09:28:55;;;;;;;11.85;3.70;;;15.90;99.90;;;;;;4994571;28;20666;-54
2022/05/14 09:31:34;;;;;;;11.40;3.40;;;16.00;99.90;;;;;;5011242;28;20385;-55
2022/05/14 09:34:16;;;;;;;13.40;4.32;;;15.80;99.90;;;;;;4995272;28;20396;-55
2022/05/14 09:36:45;;;;;;;11.13;3.63;;;15.80;99.90;;;;;;4997294;28;20435;-49
2022/05/14 09:39:15;;;;;;;11.05;3.90;;;15.90;99.90;;;;;;5012848;28;20964;-54
2022/05/14 09:41:54;;;;;;;13.23;3.65;;;16.00;99.90;;;;;;5011104;28;20412;-56
2022/05/14 09:44:44;;;;;;;12.05;4.03;;;16.00;99.90;;;;;;4996219;28;20381;-53
2022/05/14 09:47:35;;;;;;;11.30;3.85;;;16.10;99.90;;;;;;4995255;28;20403;-53
2022/05/14 09:50:08;;;;;;;11.40;3.43;;;16.00;99.90;;;;;;4994171;28;20736;-53
2022/05/14 09:52:36;;;;;;;11.55;3.55;;;16.00;99.90;;;;;;5011901;28;20999;-54
2022/05/14 09:55:08;;;;;;;11.38;4.35;;;15.90;99.90;;;;;;5009751;28;20428;-63
2022/05/14 09:57:55;;;;;;;15.68;5.20;;;16.00;99.90;;;;;;5006595;28;20380;-63
2022/05/14 10:00:30;;;;;;;12.38;5.32;;;15.90;99.90;;;;;;4990997;28;20377;-63
2022/05/14 10:03:15;;;;;;;13.43;4.55;;;16.00;99.90;;;;;;4990549;28;20393;-63
2022/05/14 10:06:10;;;;;;;14.10;6.35;;;16.10;99.90;;;;;;4990237;28;20747;-55
2022/05/14 10:08:44;;;;;;;14.27;5.03;;;16.20;99.90;;;;;;4967337;28;20416;-51
2022/05/14 10:11:17;;;;;;;16.73;3.85;;;16.10;99.90;;;;;;4988397;28;20400;-51
2022/05/14 10:14:00;;;;;;;12.60;3.30;;;16.10;99.90;;;;;;5003983;28;20391;-52
2022/05/14 10:16:42;;;;;;;10.05;3.20;;;16.10;99.90;;;;;;4986418;28;20912;-51
2022/05/14 10:19:11;;;;;;;10.60;3.75;;;16.10;99.90;;;;;;4988326;28;20384;-52
2022/05/14 10:21:59;;;;;;;10.10;3.60;;;16.20;99.90;;;;;;4989730;28;20396;-51
2022/05/14 10:27:26;;;;;;;9.40;3.42;;;16.30;99.90;;;;;;5007063;28;20780;-49
2022/05/14 10:30:13;;;;;;;8.48;3.20;;;16.30;99.90;;;;;;4990128;28;20447;-53
2022/05/14 10:32:40;;;;;;;13.60;4.60;;;16.30;99.90;;;;;;5007469;28;20423;-53
2022/05/14 10:35:19;;;;;;;11.57;3.60;;;16.30;99.90;;;;;;4988147;28;20612;-56
2022/05/14 10:38:14;;;;;;;13.70;4.28;;;16.20;99.90;;;;;;5006453;28;20387;-52
2022/05/14 10:40:48;;;;;;;9.82;3.55;;;16.30;99.90;;;;;;4987160;28;20563;-53
2022/05/14 10:43:26;;;;;;;11.93;4.13;;;16.30;99.90;;;;;;4987438;28;20393;-54
2022/05/14 10:45:56;;;;;;;7.28;3.00;;;16.30;99.90;;;;;;4985628;28;20399;-50
2022/05/14 10:48:42;;;;;;;11.83;3.70;;;16.30;99.90;;;;;;4986884;28;20387;-53
2022/05/14 10:51:10;;;;;;;9.70;3.30;;;16.20;99.90;;;;;;4986173;28;20459;-51
2022/05/14 10:53:40;;;;;;;9.70;3.78;;;16.20;99.90;;;;;;4988229;28;20480;-52
2022/05/14 10:56:13;;;;;;;10.00;3.60;;;16.30;99.90;;;;;;4986018;28;20752;-55
2022/05/14 10:58:53;;;;;;;11.00;3.92;;;16.30;99.90;;;;;;4987467;28;20807;-49
2022/05/14 11:01:51;;;;;;;12.13;4.00;;;16.40;99.90;;;;;;4986853;28;20385;-53
2022/05/14 11:04:24;;;;;;;12.75;3.95;;;16.60;99.90;;;;;;4986637;28;20439;-50
2022/05/14 11:07:08;;;;;;;13.48;3.67;;;16.50;99.90;;;;;;4987672;28;20704;-50
2022/05/14 11:09:34;;;;;;;10.13;4.20;;;16.50;99.90;;;;;;5001389;28;20569;-56
2022/05/14 11:12:20;;;;;;;15.17;4.07;;;16.60;99.90;;;;;;4982638;28;20714;-51
2022/05/14 11:14:48;;;;;;;11.43;4.10;;;16.50;99.90;;;;;;4974172;28;20416;-51
2022/05/14 11:17:28;;;;;;;11.23;3.85;;;16.50;99.90;;;;;;4980875;28;20404;-50
2022/05/14 11:20:06;;;;;;;15.90;4.57;;;16.50;99.90;;;;;;4984002;28;20388;-51
2022/05/14 11:22:47;;;;;;;15.02;4.45;;;16.70;99.90;;;;;;4984793;28;20404;-53
2022/05/14 11:25:22;;;;;;;14.52;4.10;;;16.70;99.90;;;;;;4984367;28;20700;-52
2022/05/14 11:27:59;;;;;;;12.90;3.78;;;16.70;99.90;;;;;;4984747;28;20577;-50
2022/05/14 11:30:44;;;;;;;14.90;4.03;;;16.60;99.90;;;;;;4981928;28;20475;-50
2022/05/14 11:33:25;;;;;;;12.57;3.97;;;16.60;99.90;;;;;;4982007;28;20381;-51
2022/05/14 11:35:56;;;;;;;13.65;3.92;;;16.80;99.90;;;;;;5002252;28;20436;-52
2022/05/14 11:38:25;;;;;;;10.63;3.60;;;17.10;99.90;;;;;;5001871;28;20719;-51
2022/05/14 11:40:57;;;;;;;12.20;4.10;;;17.20;99.90;;;;;;4983738;28;20483;-50
2022/05/14 11:43:30;;;;;;;13.95;4.68;;;17.20;99.90;;;;;;5000752;28;20385;-52
2022/05/14 11:46:22;;;;;;;9.50;3.60;;;17.10;99.90;;;;;;4986027;28;20471;-56
2022/05/14 11:49:06;;;;;;;8.97;3.33;;;17.00;99.90;;;;;;4986724;28;20661;-52
2022/05/14 11:51:55;;;;;;;14.02;3.90;;;17.10;99.90;;;;;;5002727;28;20844;-53
2022/05/14 11:54:26;;;;;;;13.65;4.35;;;17.20;99.90;;;;;;4986019;28;20487;-54
2022/05/14 11:57:01;;;;;;;11.43;4.10;;;17.30;99.90;;;;;;4982256;28;20861;-52
2022/05/14 11:59:54;;;;;;;9.18;3.17;;;17.30;99.90;;;;;;4979947;28;20667;-52
2022/05/14 12:02:37;;;;;;;11.45;3.50;;;17.40;99.90;;;;;;4983015;28;20497;-49
2022/05/14 12:05:05;;;;;;;11.05;3.38;;;17.40;99.90;;;;;;4987319;28;20418;-52
2022/05/14 12:07:40;;;;;;;9.05;3.10;;;17.50;99.90;;;;;;5004476;28;20453;-52
2022/05/14 12:10:22;;;;;;;9.45;2.90;;;17.60;99.90;;;;;;4988680;28;20497;-52
2022/05/14 12:13:11;;;;;;;9.38;3.38;;;17.60;99.90;;;;;;4990319;28;20425;-52
2022/05/14 12:15:49;;;;;;;9.32;3.10;;;17.80;99.90;;;;;;4991113;28;20410;-53
2022/05/14 12:18:16;;;;;;;9.43;3.38;;;17.90;99.90;;;;;;4991836;28;20426;-55
2022/05/14 12:20:44;;;;;;;11.73;3.72;;;18.10;99.90;;;;;;4991430;28;20394;-54
2022/05/14 12:23:14;;;;;;;8.80;3.10;;;18.20;99.90;;;;;;4989195;28;21013;-51
2022/05/14 12:25:49;;;;;;;7.70;2.67;;;18.30;99.90;;;;;;4990802;28;20398;-54
2022/05/14 12:28:27;;;;;;;9.48;3.20;;;18.00;99.90;;;;;;4991074;28;20405;-52
2022/05/14 12:34:03;;;;;;;8.70;3.40;;;17.90;99.90;;;;;;4987335;28;20444;-53
2022/05/14 12:36:40;;;;;;;10.60;3.60;;;18.10;99.90;;;;;;4991102;28;20409;-54
2022/05/14 12:39:14;;;;;;;12.90;3.70;;;18.30;99.90;;;;;;4993414;28;20483;-54
2022/05/14 12:41:41;;;;;;;9.15;3.38;;;18.30;99.90;;;;;;4992692;28;20394;-55
2022/05/14 12:44:11;;;;;;;9.98;3.08;;;18.30;99.90;;;;;;4990643;28;20382;-51
2022/05/14 12:46:46;;;;;;;10.95;3.85;;;18.30;99.90;;;;;;4993460;28;20817;-54
2022/05/14 12:49:38;;;;;;;11.55;3.65;;;18.30;99.90;;;;;;4984830;28;20394;-52
2022/05/14 12:52:11;;;;;;;11.02;3.55;;;18.20;99.90;;;;;;4984751;28;20417;-52
2022/05/14 12:55:13;;;;;;;11.52;4.05;;;18.10;99.90;;;;;;4986863;28;20412;-50
2022/05/14 12:57:46;;;;;;;10.43;3.72;;;17.90;99.90;;;;;;4946778;28;20439;-52
2022/05/14 13:00:15;;;;;;;11.32;3.97;;;18.00;99.90;;;;;;4968397;28;20537;-54
2022/05/14 13:03:11;;;;;;;15.38;3.55;;;18.00;99.90;;;;;;4969835;28;20384;-54
2022/05/14 13:05:49;;;;;;;7.70;3.10;;;17.90;99.90;;;;;;4970182;28;20788;-51
2022/05/14 13:08:18;;;;;;;9.82;3.25;;;18.00;99.90;;;;;;4966946;28;20734;-52
2022/05/14 13:10:51;;;;;;;9.32;3.30;;;18.40;99.90;;;;;;4967993;28;20396;-54
2022/05/14 13:13:18;;;;;;;8.63;3.55;;;18.50;99.90;;;;;;4964934;28;20563;-53
2022/05/14 13:15:53;;;;;;;12.27;4.15;;;18.50;99.90;;;;;;4965338;28;20436;-51
2022/05/14 13:18:23;;;;;;;10.73;3.35;;;18.50;99.90;;;;;;4963070;28;20431;-51
2022/05/14 13:20:58;;;;;;;9.55;3.50;;;18.80;99.90;;;;;;4963488;28;20684;-51
2022/05/14 13:23:25;;;;;;;11.43;3.38;;;19.00;99.90;;;;;;4964276;28;20820;-53